Bareilly — A8KG7 — position and weather

sailwx.info

Track history (hours):
 
Tides and Currents Weather Stations Pressure Air Temp Water Temp Dewpoint Dewpoint Depression Visibility Wind Speed Wind Dir Waves Ship Positions

Bareilly

Last reported at 2015-Jan-27 10:06 UTC. Time now 2015-Jan-30 23:27 UTC.
Position N 41°19' E 029°09'.

Length 243 m; draft 12.5 m.

Type: Tanker. MMSI: 636013054.

Date/timePositionNaut miles runAvg speedWind from/ knotsBaromVisibWave heightAir tempDewpointWater temp
2015-Jan-27 10:06N 41°19' E 029°09'17 5.9
2015-Jan-27 07:14N 41°31' E 029°25'23312.3
2015-Jan-26 12:15N 43°15' E 034°08'912.4
2015-Jan-26 11:33N 43°19' E 034°19'1212.4
2015-Jan-26 10:33N 43°25' E 034°34'1212.1
2015-Jan-26 09:33N 43°30' E 034°49'1212.0
2015-Jan-26 08:33N 43°35' E 035°04'1312.2
2015-Jan-26 07:32N 43°41' E 035°19'1312.5
2015-Jan-26 06:31N 43°46' E 035°35'8812.7
2015-Jan-25 23:32N 44°26' E 037°25'1312.7
2015-Jan-25 22:33N 44°32' E 037°41'1111.0
2015-Jan-25 21:33N 44°40' E 037°50'2 0.1
2015-Jan-24 18:33N 44°42' E 037°50'4 4.2
2015-Jan-24 17:33N 44°38' E 037°51'6 6.1
2015-Jan-24 16:34N 44°33' E 037°48'2 2.4
2015-Jan-24 15:34N 44°31' E 037°47'2 1.8
2015-Jan-24 14:33N 44°29' E 037°45'0 0.4
2015-Jan-24 13:34N 44°29' E 037°46'0 0.2
2015-Jan-24 12:34N 44°29' E 037°46'3 2.8
2015-Jan-24 11:34N 44°31' E 037°50'1 0.8
2015-Jan-24 10:34N 44°30' E 037°51'1 0.7
2015-Jan-24 09:34N 44°30' E 037°52'1 0.8
2015-Jan-24 08:34N 44°30' E 037°52'1 0.7
2015-Jan-24 07:34N 44°29' E 037°53'1 0.6
2015-Jan-24 06:33N 44°28' E 037°53'0 0.3
2015-Jan-24 05:34N 44°28' E 037°54'0 0.2
2015-Jan-24 04:33N 44°28' E 037°54'0 0.2
2015-Jan-24 03:34N 44°28' E 037°54'0 0.3
2015-Jan-24 02:34N 44°28' E 037°54'0 0.3
2015-Jan-24 01:32N 44°27' E 037°54'0 0.3
2015-Jan-24 00:33N 44°27' E 037°55'0 0.4
2015-Jan-23 23:33N 44°27' E 037°55'0 0.4
2015-Jan-23 22:33N 44°27' E 037°56'0 0.3
2015-Jan-23 21:33N 44°27' E 037°56'0 0.4
2015-Jan-23 20:33N 44°27' E 037°57'0 0.4
2015-Jan-23 19:33N 44°27' E 037°57'0 0.3
2015-Jan-23 18:34N 44°28' E 037°57'4 4.3
2015-Jan-23 17:34N 44°31' E 037°53'1 0.8
2015-Jan-23 16:33N 44°30' E 037°53'1 0.9
2015-Jan-23 15:33N 44°29' E 037°54'0 0.4
2015-Jan-23 14:34N 44°29' E 037°54'0 0.2
2015-Jan-23 13:34N 44°29' E 037°54'0 0.5
2015-Jan-23 12:34N 44°28' E 037°53'1 0.7
2015-Jan-23 11:34N 44°28' E 037°52'1 1.0
2015-Jan-23 10:34N 44°28' E 037°51'1 1.0
2015-Jan-23 09:34N 44°27' E 037°50'1 1.0
2015-Jan-23 08:34N 44°27' E 037°49'1 0.9
2015-Jan-23 07:34N 44°26' E 037°48'1 1.0
2015-Jan-23 06:34N 44°26' E 037°47'1 0.8
2015-Jan-23 05:33N 44°25' E 037°46'1 0.9
2015-Jan-23 04:33N 44°25' E 037°45'2 1.7
2015-Jan-23 03:33N 44°24' E 037°43'3 2.9
2015-Jan-23 02:33N 44°21' E 037°43'1 1.0
2015-Jan-23 01:33N 44°21' E 037°44'1 1.0
2015-Jan-23 00:30N 44°22' E 037°45'1 0.9
2015-Jan-22 23:33N 44°23' E 037°45'1 0.9
2015-Jan-22 22:33N 44°24' E 037°46'2 2.2
2015-Jan-22 21:34N 44°25' E 037°48'1 0.9
2015-Jan-22 20:33N 44°26' E 037°48'1 0.8
2015-Jan-22 19:33N 44°27' E 037°48'1 0.8
2015-Jan-22 18:33N 44°28' E 037°48'1 0.5
2015-Jan-22 17:33N 44°28' E 037°48'0 0.2
2015-Jan-22 16:34N 44°28' E 037°47'0 0.4
2015-Jan-22 15:33N 44°28' E 037°47'0 0.2
2015-Jan-22 14:34N 44°28' E 037°47'6 6.3
2015-Jan-22 13:33N 44°22' E 037°44'4 4.4
2015-Jan-22 12:34N 44°18' E 037°42'1 1.0
2015-Jan-22 11:34N 44°19' E 037°41'1 1.1
2015-Jan-22 10:34N 44°19' E 037°39'1 0.8
2015-Jan-22 09:33N 44°20' E 037°39'1 0.9
2015-Jan-22 08:34N 44°20' E 037°38'1 0.7
2015-Jan-22 07:33N 44°21' E 037°37'1 0.7
2015-Jan-22 06:34N 44°21' E 037°36'1 0.7
2015-Jan-22 05:34N 44°22' E 037°35'1 0.8
2015-Jan-22 04:33N 44°22' E 037°35'1 0.9
2015-Jan-22 03:34N 44°23' E 037°34'1 0.8
2015-Jan-22 02:33N 44°24' E 037°33'1 0.8
2015-Jan-22 01:34N 44°24' E 037°32'1 0.9
2015-Jan-22 00:34N 44°25' E 037°31'1 1.0
2015-Jan-21 23:33N 44°25' E 037°30'1 1.1
2015-Jan-21 22:50N 44°26' E 037°29'0 1.1
2015-Jan-21 22:46N 44°26' E 037°29'0 1.1
2015-Jan-21 22:33N 44°26' E 037°29'1 1.1
2015-Jan-21 21:33N 44°27' E 037°27'1 1.1
2015-Jan-21 20:33N 44°27' E 037°26'1 1.1
2015-Jan-21 19:34N 44°28' E 037°25'1 0.9
2015-Jan-21 18:33N 44°29' E 037°24'1 0.8
2015-Jan-21 17:34N 44°29' E 037°24'0 0.5
2015-Jan-21 16:33N 44°30' E 037°23'0 0.2
2015-Jan-21 15:34N 44°30' E 037°23'0 0.1
2015-Jan-21 14:31N 44°30' E 037°23'0 0.1
2015-Jan-21 13:34N 44°30' E 037°23'0 0.1
2015-Jan-21 12:34N 44°30' E 037°23'0 0.1
2015-Jan-21 11:34N 44°30' E 037°23'0 0.1
2015-Jan-21 10:33N 44°30' E 037°23'0 0.1
2015-Jan-21 09:33N 44°30' E 037°23'0 0.2
2015-Jan-21 08:32N 44°29' E 037°23'0 0.4
2015-Jan-21 07:33N 44°29' E 037°24'1 0.6
2015-Jan-21 06:34N 44°29' E 037°25'1 0.7
2015-Jan-21 05:33N 44°29' E 037°25'4 3.5
2015-Jan-21 04:33N 44°32' E 037°23'2 0.5
2015-Jan-21 01:10N 44°31' E 037°25'1 0.4
2015-Jan-20 23:31N 44°30' E 037°25'1 0.6
2015-Jan-20 22:33N 44°30' E 037°26'1 0.7
2015-Jan-20 21:33N 44°29' E 037°26'1 0.9
2015-Jan-20 20:33N 44°28' E 037°27'1 1.1
2015-Jan-20 19:33N 44°27' E 037°27'1 1.3
2015-Jan-20 18:33N 44°26' E 037°28'2 1.6
2015-Jan-20 17:33N 44°25' E 037°29'2 1.7
2015-Jan-20 16:30N 44°24' E 037°31'2 1.9
2015-Jan-20 15:33N 44°23' E 037°33'2 1.8
2015-Jan-20 14:32N 44°22' E 037°35'2 2.0
2015-Jan-20 13:34N 44°21' E 037°38'2 1.9
2015-Jan-20 12:34N 44°20' E 037°40'2 1.8
2015-Jan-20 11:34N 44°20' E 037°42'2 1.8
2015-Jan-20 10:34N 44°19' E 037°45'2 1.8
2015-Jan-20 09:33N 44°19' E 037°47'2 1.8
2015-Jan-20 08:34N 44°19' E 037°50'1 1.4
2015-Jan-20 07:34N 44°19' E 037°52'1 1.3
2015-Jan-20 06:34N 44°19' E 037°54'3 2.7
2015-Jan-20 05:33N 44°21' E 037°56'8 7.8
2015-Jan-20 04:33N 44°27' E 038°02'2 1.5
2015-Jan-20 03:33N 44°27' E 037°60'1 1.3
2015-Jan-20 02:33N 44°26' E 037°58'1 1.1
2015-Jan-20 01:33N 44°26' E 037°57'1 1.1
2015-Jan-20 00:34N 44°25' E 037°56'1 1.1
2015-Jan-19 23:34N 44°25' E 037°54'1 1.0
2015-Jan-19 22:33N 44°25' E 037°53'1 1.0
2015-Jan-19 21:34N 44°24' E 037°52'1 1.1
2015-Jan-19 20:33N 44°24' E 037°50'1 1.1
2015-Jan-19 19:33N 44°23' E 037°49'1 1.0
2015-Jan-19 18:33N 44°23' E 037°47'3 3.2
2015-Jan-19 17:33N 44°23' E 037°43'7 6.7
2015-Jan-19 16:34N 44°26' E 037°35'8 7.7
2015-Jan-19 15:33N 44°32' E 037°29'8 7.9
2015-Jan-19 14:33N 44°38' E 037°21'2 0.2
2015-Jan-19 05:33N 44°38' E 037°24'3 1.6
2015-Jan-19 03:30N 44°35' E 037°27'2 1.6
2015-Jan-19 02:31N 44°34' E 037°28'2 1.6
2015-Jan-19 01:32N 44°32' E 037°29'2 1.6
2015-Jan-19 00:34N 44°31' E 037°30'2 1.6
2015-Jan-18 23:33N 44°30' E 037°31'2 1.7
2015-Jan-18 22:33N 44°28' E 037°32'2 1.8
2015-Jan-18 21:33N 44°27' E 037°34'2 1.8
2015-Jan-18 20:33N 44°26' E 037°36'2 1.8
2015-Jan-18 19:33N 44°24' E 037°38'2 1.8
2015-Jan-18 18:33N 44°23' E 037°40'2 1.8
2015-Jan-18 17:33N 44°22' E 037°42'2 1.7
2015-Jan-18 16:33N 44°21' E 037°44'4 3.6
2015-Jan-18 15:34N 44°24' E 037°41'8 7.5
2015-Jan-18 14:34N 44°31' E 037°37'4 4.1
2015-Jan-18 13:34N 44°35' E 037°34'2 1.6
2015-Jan-18 12:34N 44°34' E 037°32'2 1.6
2015-Jan-18 11:33N 44°33' E 037°30'2 1.6
2015-Jan-18 10:34N 44°31' E 037°30'2 1.5
2015-Jan-18 09:34N 44°30' E 037°29'2 1.5
2015-Jan-18 08:34N 44°28' E 037°29'1 1.3
2015-Jan-18 07:34N 44°27' E 037°29'1 1.1
2015-Jan-18 06:34N 44°26' E 037°30'1 1.0
2015-Jan-18 05:33N 44°25' E 037°31'1 1.1
2015-Jan-18 04:33N 44°25' E 037°32'1 1.1
2015-Jan-18 03:34N 44°24' E 037°34'1 0.8
2015-Jan-18 02:33N 44°24' E 037°35'1 0.8
2015-Jan-18 01:33N 44°24' E 037°36'1 0.8
2015-Jan-18 00:34N 44°23' E 037°37'1 0.9
2015-Jan-17 23:33N 44°23' E 037°38'1 1.0
2015-Jan-17 22:33N 44°23' E 037°40'1 1.0
2015-Jan-17 21:33N 44°23' E 037°41'1 1.0
2015-Jan-17 20:34N 44°23' E 037°42'1 1.0
2015-Jan-17 19:34N 44°23' E 037°44'1 1.3
2015-Jan-17 18:33N 44°23' E 037°46'3 3.4
2015-Jan-17 17:33N 44°20' E 037°44'6 6.0
2015-Jan-17 16:32N 44°14' E 037°41'  
Track history (hours):
 
Tides and Currents Weather Stations Pressure Air Temp Water Temp Dewpoint Dewpoint Depression Visibility Wind Speed Wind Dir Waves Ship Positions

Bareilly

Last reported at 2015-Jan-27 10:06 UTC. Time now 2015-Jan-30 23:27 UTC.
Position N 41°19' E 029°09'.

Length 243 m; draft 12.5 m.

Type: Tanker. MMSI: 636013054.

Date/timePositionNaut miles runAvg speedWind from/ knotsBaromVisibWave heightAir tempDewpointWater temp
2015-Jan-27 10:06N 41°19' E 029°09'17 5.9
2015-Jan-27 07:14N 41°31' E 029°25'23312.3
2015-Jan-26 12:15N 43°15' E 034°08'912.4
2015-Jan-26 11:33N 43°19' E 034°19'1212.4
2015-Jan-26 10:33N 43°25' E 034°34'1212.1
2015-Jan-26 09:33N 43°30' E 034°49'1212.0
2015-Jan-26 08:33N 43°35' E 035°04'1312.2
2015-Jan-26 07:32N 43°41' E 035°19'1312.5
2015-Jan-26 06:31N 43°46' E 035°35'8812.7
2015-Jan-25 23:32N 44°26' E 037°25'1312.7
2015-Jan-25 22:33N 44°32' E 037°41'1111.0
2015-Jan-25 21:33N 44°40' E 037°50'2 0.1
2015-Jan-24 18:33N 44°42' E 037°50'4 4.2
2015-Jan-24 17:33N 44°38' E 037°51'6 6.1
2015-Jan-24 16:34N 44°33' E 037°48'2 2.4
2015-Jan-24 15:34N 44°31' E 037°47'2 1.8
2015-Jan-24 14:33N 44°29' E 037°45'0 0.4
2015-Jan-24 13:34N 44°29' E 037°46'0 0.2
2015-Jan-24 12:34N 44°29' E 037°46'3 2.8
2015-Jan-24 11:34N 44°31' E 037°50'1 0.8
2015-Jan-24 10:34N 44°30' E 037°51'1 0.7
2015-Jan-24 09:34N 44°30' E 037°52'1 0.8
2015-Jan-24 08:34N 44°30' E 037°52'1 0.7
2015-Jan-24 07:34N 44°29' E 037°53'1 0.6
2015-Jan-24 06:33N 44°28' E 037°53'0 0.3
2015-Jan-24 05:34N 44°28' E 037°54'0 0.2
2015-Jan-24 04:33N 44°28' E 037°54'0 0.2
2015-Jan-24 03:34N 44°28' E 037°54'0 0.3
2015-Jan-24 02:34N 44°28' E 037°54'0 0.3
2015-Jan-24 01:32N 44°27' E 037°54'0 0.3
2015-Jan-24 00:33N 44°27' E 037°55'0 0.4
2015-Jan-23 23:33N 44°27' E 037°55'0 0.4
2015-Jan-23 22:33N 44°27' E 037°56'0 0.3
2015-Jan-23 21:33N 44°27' E 037°56'0 0.4
2015-Jan-23 20:33N 44°27' E 037°57'0 0.4
2015-Jan-23 19:33N 44°27' E 037°57'0 0.3
2015-Jan-23 18:34N 44°28' E 037°57'4 4.3
2015-Jan-23 17:34N 44°31' E 037°53'1 0.8
2015-Jan-23 16:33N 44°30' E 037°53'1 0.9
2015-Jan-23 15:33N 44°29' E 037°54'0 0.4
2015-Jan-23 14:34N 44°29' E 037°54'0 0.2
2015-Jan-23 13:34N 44°29' E 037°54'0 0.5
2015-Jan-23 12:34N 44°28' E 037°53'1 0.7
2015-Jan-23 11:34N 44°28' E 037°52'1 1.0
2015-Jan-23 10:34N 44°28' E 037°51'1 1.0
2015-Jan-23 09:34N 44°27' E 037°50'1 1.0
2015-Jan-23 08:34N 44°27' E 037°49'1 0.9
2015-Jan-23 07:34N 44°26' E 037°48'1 1.0
2015-Jan-23 06:34N 44°26' E 037°47'1 0.8
2015-Jan-23 05:33N 44°25' E 037°46'1 0.9
2015-Jan-23 04:33N 44°25' E 037°45'2 1.7
2015-Jan-23 03:33N 44°24' E 037°43'3 2.9
2015-Jan-23 02:33N 44°21' E 037°43'1 1.0
2015-Jan-23 01:33N 44°21' E 037°44'1 1.0
2015-Jan-23 00:30N 44°22' E 037°45'1 0.9
2015-Jan-22 23:33N 44°23' E 037°45'1 0.9
2015-Jan-22 22:33N 44°24' E 037°46'2 2.2
2015-Jan-22 21:34N 44°25' E 037°48'1 0.9
2015-Jan-22 20:33N 44°26' E 037°48'1 0.8
2015-Jan-22 19:33N 44°27' E 037°48'1 0.8
2015-Jan-22 18:33N 44°28' E 037°48'1 0.5
2015-Jan-22 17:33N 44°28' E 037°48'0 0.2
2015-Jan-22 16:34N 44°28' E 037°47'0 0.4
2015-Jan-22 15:33N 44°28' E 037°47'0 0.2
2015-Jan-22 14:34N 44°28' E 037°47'6 6.3
2015-Jan-22 13:33N 44°22' E 037°44'4 4.4
2015-Jan-22 12:34N 44°18' E 037°42'1 1.0
2015-Jan-22 11:34N 44°19' E 037°41'1 1.1
2015-Jan-22 10:34N 44°19' E 037°39'1 0.8
2015-Jan-22 09:33N 44°20' E 037°39'1 0.9
2015-Jan-22 08:34N 44°20' E 037°38'1 0.7
2015-Jan-22 07:33N 44°21' E 037°37'1 0.7
2015-Jan-22 06:34N 44°21' E 037°36'1 0.7
2015-Jan-22 05:34N 44°22' E 037°35'1 0.8
2015-Jan-22 04:33N 44°22' E 037°35'1 0.9
2015-Jan-22 03:34N 44°23' E 037°34'1 0.8
2015-Jan-22 02:33N 44°24' E 037°33'1 0.8
2015-Jan-22 01:34N 44°24' E 037°32'1 0.9
2015-Jan-22 00:34N 44°25' E 037°31'1 1.0
2015-Jan-21 23:33N 44°25' E 037°30'1 1.1
2015-Jan-21 22:50N 44°26' E 037°29'0 1.1
2015-Jan-21 22:46N 44°26' E 037°29'0 1.1
2015-Jan-21 22:33N 44°26' E 037°29'1 1.1
2015-Jan-21 21:33N 44°27' E 037°27'1 1.1
2015-Jan-21 20:33N 44°27' E 037°26'1 1.1
2015-Jan-21 19:34N 44°28' E 037°25'1 0.9
2015-Jan-21 18:33N 44°29' E 037°24'1 0.8
2015-Jan-21 17:34N 44°29' E 037°24'0 0.5
2015-Jan-21 16:33N 44°30' E 037°23'0 0.2
2015-Jan-21 15:34N 44°30' E 037°23'0 0.1
2015-Jan-21 14:31N 44°30' E 037°23'0 0.1
2015-Jan-21 13:34N 44°30' E 037°23'0 0.1
2015-Jan-21 12:34N 44°30' E 037°23'0 0.1
2015-Jan-21 11:34N 44°30' E 037°23'0 0.1
2015-Jan-21 10:33N 44°30' E 037°23'0 0.1
2015-Jan-21 09:33N 44°30' E 037°23'0 0.2
2015-Jan-21 08:32N 44°29' E 037°23'0 0.4
2015-Jan-21 07:33N 44°29' E 037°24'1 0.6
2015-Jan-21 06:34N 44°29' E 037°25'1 0.7
2015-Jan-21 05:33N 44°29' E 037°25'4 3.5
2015-Jan-21 04:33N 44°32' E 037°23'2 0.5
2015-Jan-21 01:10N 44°31' E 037°25'1 0.4
2015-Jan-20 23:31N 44°30' E 037°25'1 0.6
2015-Jan-20 22:33N 44°30' E 037°26'1 0.7
2015-Jan-20 21:33N 44°29' E 037°26'1 0.9
2015-Jan-20 20:33N 44°28' E 037°27'1 1.1
2015-Jan-20 19:33N 44°27' E 037°27'1 1.3
2015-Jan-20 18:33N 44°26' E 037°28'2 1.6
2015-Jan-20 17:33N 44°25' E 037°29'2 1.7
2015-Jan-20 16:30N 44°24' E 037°31'2 1.9
2015-Jan-20 15:33N 44°23' E 037°33'2 1.8
2015-Jan-20 14:32N 44°22' E 037°35'2 2.0
2015-Jan-20 13:34N 44°21' E 037°38'2 1.9
2015-Jan-20 12:34N 44°20' E 037°40'2 1.8
2015-Jan-20 11:34N 44°20' E 037°42'2 1.8
2015-Jan-20 10:34N 44°19' E 037°45'2 1.8
2015-Jan-20 09:33N 44°19' E 037°47'2 1.8
2015-Jan-20 08:34N 44°19' E 037°50'1 1.4
2015-Jan-20 07:34N 44°19' E 037°52'1 1.3
2015-Jan-20 06:34N 44°19' E 037°54'3 2.7
2015-Jan-20 05:33N 44°21' E 037°56'8 7.8
2015-Jan-20 04:33N 44°27' E 038°02'2 1.5
2015-Jan-20 03:33N 44°27' E 037°60'1 1.3
2015-Jan-20 02:33N 44°26' E 037°58'1 1.1
2015-Jan-20 01:33N 44°26' E 037°57'1 1.1
2015-Jan-20 00:34N 44°25' E 037°56'1 1.1
2015-Jan-19 23:34N 44°25' E 037°54'1 1.0
2015-Jan-19 22:33N 44°25' E 037°53'1 1.0
2015-Jan-19 21:34N 44°24' E 037°52'1 1.1
2015-Jan-19 20:33N 44°24' E 037°50'1 1.1
2015-Jan-19 19:33N 44°23' E 037°49'1 1.0
2015-Jan-19 18:33N 44°23' E 037°47'3 3.2
2015-Jan-19 17:33N 44°23' E 037°43'7 6.7
2015-Jan-19 16:34N 44°26' E 037°35'8 7.7
2015-Jan-19 15:33N 44°32' E 037°29'8 7.9
2015-Jan-19 14:33N 44°38' E 037°21'2 0.2
2015-Jan-19 05:33N 44°38' E 037°24'3 1.6
2015-Jan-19 03:30N 44°35' E 037°27'2 1.6
2015-Jan-19 02:31N 44°34' E 037°28'2 1.6
2015-Jan-19 01:32N 44°32' E 037°29'2 1.6
2015-Jan-19 00:34N 44°31' E 037°30'2 1.6
2015-Jan-18 23:33N 44°30' E 037°31'2 1.7
2015-Jan-18 22:33N 44°28' E 037°32'2 1.8
2015-Jan-18 21:33N 44°27' E 037°34'2 1.8
2015-Jan-18 20:33N 44°26' E 037°36'2 1.8
2015-Jan-18 19:33N 44°24' E 037°38'2 1.8
2015-Jan-18 18:33N 44°23' E 037°40'2 1.8
2015-Jan-18 17:33N 44°22' E 037°42'2 1.7
2015-Jan-18 16:33N 44°21' E 037°44'4 3.6
2015-Jan-18 15:34N 44°24' E 037°41'8 7.5
2015-Jan-18 14:34N 44°31' E 037°37'4 4.1
2015-Jan-18 13:34N 44°35' E 037°34'2 1.6
2015-Jan-18 12:34N 44°34' E 037°32'2 1.6
2015-Jan-18 11:33N 44°33' E 037°30'2 1.6
2015-Jan-18 10:34N 44°31' E 037°30'2 1.5
2015-Jan-18 09:34N 44°30' E 037°29'2 1.5
2015-Jan-18 08:34N 44°28' E 037°29'1 1.3
2015-Jan-18 07:34N 44°27' E 037°29'1 1.1
2015-Jan-18 06:34N 44°26' E 037°30'1 1.0
2015-Jan-18 05:33N 44°25' E 037°31'1 1.1
2015-Jan-18 04:33N 44°25' E 037°32'1 1.1
2015-Jan-18 03:34N 44°24' E 037°34'1 0.8
2015-Jan-18 02:33N 44°24' E 037°35'1 0.8
2015-Jan-18 01:33N 44°24' E 037°36'1 0.8
2015-Jan-18 00:34N 44°23' E 037°37'1 0.9
2015-Jan-17 23:33N 44°23' E 037°38'1 1.0
2015-Jan-17 22:33N 44°23' E 037°40'1 1.0
2015-Jan-17 21:33N 44°23' E 037°41'1 1.0
2015-Jan-17 20:34N 44°23' E 037°42'1 1.0
2015-Jan-17 19:34N 44°23' E 037°44'1 1.3
2015-Jan-17 18:33N 44°23' E 037°46'3 3.4
2015-Jan-17 17:33N 44°20' E 037°44'6 6.0
2015-Jan-17 16:32N 44°14' E 037°41'  

Dump ship's entire track history